Time;durP1;ratioP1;P1;durP2;ratioP2;P2;SDS_P1;SDS_P2;PMS_P1;PMS_P2;Temp;Humidity;BMP_temperature;BMP_pressure;BME280_temperature;BME280_humidity;BME280_pressure;Samples;Min_cycle;Max_cycle;Signal;HPM_P1;HPM_P2
2023/05/26 00:02:08;;;;;;;7.50;4.80;;;;;;;15.28;56.57;101039.25;10308258;28;20176;-66
2023/05/26 00:07:10;;;;;;;8.35;5.57;;;;;;;15.20;56.39;101043.44;10308499;28;20050;-66
2023/05/26 00:12:12;;;;;;;6.03;4.75;;;;;;;15.23;56.47;101041.50;10310994;28;20088;-66
2023/05/26 00:17:13;;;;;;;7.28;5.03;;;;;;;14.93;57.41;101052.06;10304311;28;20360;-65
2023/05/26 00:22:15;;;;;;;9.18;5.03;;;;;;;14.98;57.22;101033.75;10295248;28;20049;-64
2023/05/26 00:27:17;;;;;;;6.47;5.25;;;;;;;15.01;57.44;101040.66;10296435;28;20390;-64
2023/05/26 00:32:18;;;;;;;8.80;6.10;;;;;;;14.92;57.25;101039.66;10310691;28;20046;-64
2023/05/26 00:37:20;;;;;;;5.80;4.78;;;;;;;14.72;58.06;101040.50;10305000;28;21285;-65
2023/05/26 00:42:21;;;;;;;7.50;5.00;;;;;;;14.49;59.27;101029.91;10308087;28;20140;-66
2023/05/26 00:47:22;;;;;;;6.53;4.78;;;;;;;14.64;58.64;101030.47;10304471;28;20416;-65
2023/05/26 00:52:24;;;;;;;7.25;5.20;;;;;;;14.81;58.30;101037.03;10308040;28;20053;-66
2023/05/26 00:57:27;;;;;;;7.13;5.47;;;;;;;14.76;58.56;101032.06;10288865;28;20116;-66
2023/05/26 01:02:29;;;;;;;6.47;4.17;;;;;;;14.82;57.83;101028.88;10301400;28;20073;-65
2023/05/26 01:07:31;;;;;;;8.20;5.47;;;;;;;14.73;58.39;101029.66;10303137;28;20321;-69
2023/05/26 01:12:35;;;;;;;6.43;5.05;;;;;;;14.76;58.67;101024.03;10296186;28;20141;-65
2023/05/26 01:18:13;;;;;;;8.93;5.38;;;;;;;14.66;58.93;101023.13;10306420;28;20597;-66
2023/05/26 01:23:33;;;;;;;9.27;5.28;;;;;;;14.68;59.16;101034.53;10311193;28;20053;-65
2023/05/26 01:28:38;;;;;;;10.45;5.00;;;;;;;14.68;59.04;101042.59;10309568;28;20142;-65
2023/05/26 01:33:39;;;;;;;8.25;5.05;;;;;;;14.55;58.75;101013.28;10307916;28;20080;-65
2023/05/26 01:38:41;;;;;;;7.68;5.40;;;;;;;14.60;59.09;101026.31;10300731;28;20050;-66
2023/05/26 01:44:04;;;;;;;7.75;5.28;;;;;;;14.61;59.10;101022.69;10308037;28;20533;-66
2023/05/26 01:49:09;;;;;;;5.43;4.88;;;;;;;14.50;58.77;101024.41;10304828;28;20957;-65
2023/05/26 01:54:11;;;;;;;9.38;5.20;;;;;;;14.53;59.25;101034.00;10311570;28;20058;-64
2023/05/26 01:59:16;;;;;;;9.05;5.72;;;;;;;14.49;59.47;101030.75;10307505;28;20056;-65
2023/05/26 02:04:17;;;;;;;7.25;5.03;;;;;;;14.32;60.06;101033.97;10313162;28;20038;-66
2023/05/26 02:09:19;;;;;;;10.27;5.72;;;;;;;14.32;59.80;101028.63;10318773;28;20687;-65
2023/05/26 02:14:20;;;;;;;8.00;5.03;;;;;;;14.35;60.32;101036.41;10308408;28;20424;-65
2023/05/26 02:19:23;;;;;;;9.52;5.43;;;;;;;14.18;60.32;101028.94;10310196;28;20149;-67
2023/05/26 02:24:24;;;;;;;6.68;5.15;;;;;;;14.19;60.49;101023.47;10311439;28;20168;-65
2023/05/26 02:29:26;;;;;;;7.45;4.93;;;;;;;14.13;60.77;101022.13;10309617;28;20089;-65
2023/05/26 02:34:27;;;;;;;8.35;5.80;;;;;;;14.22;60.71;101019.69;10306329;28;20583;-65
2023/05/26 02:39:28;;;;;;;9.05;5.93;;;;;;;14.07;60.97;101027.16;10310568;28;20595;-65
2023/05/26 02:44:30;;;;;;;9.23;6.10;;;;;;;14.18;60.48;101026.28;10309048;28;20061;-66
2023/05/26 02:49:32;;;;;;;7.93;5.85;;;;;;;14.09;61.14;101020.69;10308531;28;20054;-65
2023/05/26 02:54:33;;;;;;;10.88;6.63;;;;;;;13.90;61.22;101020.50;10309360;28;20058;-65
2023/05/26 02:59:34;;;;;;;7.13;6.32;;;;;;;13.88;61.97;101033.19;10298224;28;20571;-65
2023/05/26 03:04:36;;;;;;;8.35;6.43;;;;;;;13.87;61.66;101026.13;10293352;28;20050;-65
2023/05/26 03:09:38;;;;;;;7.57;5.85;;;;;;;13.93;61.89;101026.47;10306972;28;20049;-65
2023/05/26 03:14:39;;;;;;;9.70;6.68;;;;;;;13.98;61.99;101028.78;10296911;28;20050;-67
2023/05/26 03:19:41;;;;;;;9.55;5.78;;;;;;;13.96;61.84;101026.22;10307669;28;20164;-64
2023/05/26 03:24:42;;;;;;;6.35;5.72;;;;;;;13.77;62.52;101018.00;10297860;28;20042;-64
2023/05/26 03:29:43;;;;;;;8.63;5.88;;;;;;;13.85;61.69;101020.06;10300975;28;20140;-65
2023/05/26 03:34:45;;;;;;;9.38;6.13;;;;;;;13.76;62.01;101025.16;10304361;28;20054;-65
2023/05/26 03:39:46;;;;;;;9.52;6.43;;;;;;;13.77;62.37;101020.69;10306645;28;20045;-64
2023/05/26 03:44:47;;;;;;;9.15;6.10;;;;;;;13.78;62.20;101028.59;10307346;28;20185;-64
2023/05/26 03:49:49;;;;;;;9.63;6.78;;;;;;;13.72;62.19;101026.41;10312696;28;20053;-64
2023/05/26 03:54:51;;;;;;;7.60;6.85;;;;;;;13.64;62.62;101030.69;10303205;28;20132;-67
2023/05/26 03:59:52;;;;;;;11.35;7.38;;;;;;;13.48;63.35;101025.72;10303853;28;20694;-64
2023/05/26 04:04:53;;;;;;;7.00;6.30;;;;;;;13.52;63.13;101043.22;10303178;28;20101;-64
2023/05/26 04:09:55;;;;;;;7.85;6.65;;;;;;;13.36;64.50;101048.94;10305134;28;20145;-64
2023/05/26 04:14:56;;;;;;;13.68;7.05;;;;;;;13.55;63.39;101042.97;10307346;28;20113;-64
2023/05/26 04:19:57;;;;;;;12.45;6.43;;;;;;;13.41;64.45;101041.41;10306317;28;20047;-64
2023/05/26 04:25:00;;;;;;;11.27;6.43;;;;;;;13.34;64.35;101035.69;10304731;28;20197;-64
2023/05/26 04:30:02;;;;;;;11.43;7.00;;;;;;;13.44;64.97;101049.19;10298908;28;20131;-65
2023/05/26 04:35:05;;;;;;;14.45;7.55;;;;;;;13.56;64.12;101055.38;10304667;28;20066;-65
2023/05/26 04:40:09;;;;;;;11.10;6.53;;;;;;;13.68;63.77;101048.19;10295579;28;20042;-65
2023/05/26 04:45:11;;;;;;;;;;;;;;;13.72;64.09;101060.31;10310733;28;20060;-65
2023/05/26 04:50:16;;;;;;;10.68;6.43;;;;;;;13.71;64.21;101051.47;10303632;28;19938;-67
2023/05/26 04:55:18;;;;;;;10.60;6.78;;;;;;;13.86;63.80;101053.88;10305983;28;20054;-67
2023/05/26 05:00:20;;;;;;;10.60;6.68;;;;;;;13.97;63.14;101061.88;10301031;28;20042;-66
2023/05/26 05:05:21;;;;;;;12.23;7.25;;;;;;;13.79;64.29;101061.53;10300415;28;20050;-65
2023/05/26 05:10:23;;;;;;;10.43;6.47;;;;;;;13.89;63.51;101065.16;10299051;28;20054;-69
2023/05/26 05:15:24;;;;;;;10.63;6.80;;;;;;;13.93;63.13;101061.28;10312280;28;20172;-68
2023/05/26 05:20:26;;;;;;;11.38;6.68;;;;;;;13.86;63.63;101075.28;10299344;28;20567;-67
2023/05/26 05:25:27;;;;;;;11.85;7.15;;;;;;;14.05;63.79;101079.97;10304136;28;20512;-66
2023/05/26 05:30:29;;;;;;;13.32;6.95;;;;;;;14.14;63.15;101071.16;10317263;28;20049;-67
2023/05/26 05:35:30;;;;;;;12.73;6.60;;;;;;;14.29;63.20;101085.13;10314042;28;20066;-67
2023/05/26 05:40:31;;;;;;;11.75;6.47;;;;;;;14.29;63.12;101090.47;10301756;28;20096;-67
2023/05/26 05:45:33;;;;;;;14.23;6.80;;;;;;;14.37;62.93;101090.69;10315795;28;20089;-68
2023/05/26 05:50:35;;;;;;;11.95;6.43;;;;;;;14.26;62.47;101091.59;10339810;28;20344;-69
2023/05/26 05:55:36;;;;;;;11.80;6.65;;;;;;;14.38;62.77;101100.44;10343117;28;20468;-69
2023/05/26 06:00:38;;;;;;;12.13;7.20;;;;;;;14.44;62.82;101099.94;10319002;28;20092;-68
2023/05/26 06:05:40;;;;;;;13.75;6.20;;;;;;;14.55;62.50;101106.22;10300968;28;20125;-67
2023/05/26 06:10:42;;;;;;;12.68;6.55;;;;;;;14.59;62.46;101113.00;10302136;28;21161;-69
2023/05/26 06:15:44;;;;;;;14.10;6.78;;;;;;;14.71;61.94;101114.69;10310166;28;20163;-68
2023/05/26 06:20:45;;;;;;;11.77;6.65;;;;;;;14.90;62.18;101126.53;10293477;28;20054;-68
2023/05/26 06:25:47;;;;;;;13.95;6.45;;;;;;;14.96;62.50;101131.38;10311590;28;20045;-68
2023/05/26 06:30:48;;;;;;;14.45;7.40;;;;;;;15.11;61.54;101135.41;10309572;28;20057;-68
2023/05/26 06:35:51;;;;;;;33.25;8.95;;;;;;;15.36;61.55;101133.31;10301929;28;20056;-68
2023/05/26 06:40:52;;;;;;;15.63;7.30;;;;;;;15.55;60.78;101127.16;10311032;28;20053;-69
2023/05/26 06:45:54;;;;;;;12.38;6.07;;;;;;;15.68;60.22;101130.47;10314620;28;20057;-69
2023/05/26 06:50:55;;;;;;;14.20;7.22;;;;;;;15.74;60.18;101132.63;10310449;28;20054;-69
2023/05/26 06:55:57;;;;;;;14.25;6.28;;;;;;;15.74;60.06;101132.63;10305977;28;20056;-68
2023/05/26 07:01:00;;;;;;;16.02;7.00;;;;;;;15.84;60.03;101131.84;10314461;28;20108;-68
2023/05/26 07:06:02;;;;;;;14.73;6.70;;;;;;;16.01;59.78;101141.91;10296984;28;20544;-68
2023/05/26 07:11:05;;;;;;;16.95;6.30;;;;;;;15.99;59.73;101134.97;10310719;28;20052;-68
2023/05/26 07:16:06;;;;;;;13.68;6.35;;;;;;;16.16;59.63;101147.75;10313378;28;20050;-68
2023/05/26 07:21:08;;;;;;;12.13;5.78;;;;;;;16.14;59.28;101147.06;10291741;28;20505;-70
2023/05/26 07:26:10;;;;;;;11.20;6.30;;;;;;;16.34;58.86;101144.41;10293333;28;20046;-68
2023/05/26 07:31:13;;;;;;;14.17;6.63;;;;;;;16.37;59.50;101144.13;10311557;28;20053;-69
2023/05/26 07:36:14;;;;;;;15.05;6.40;;;;;;;16.28;59.37;101135.06;10313801;28;22006;-70
2023/05/26 07:41:16;;;;;;;14.15;6.53;;;;;;;16.60;59.35;101137.50;10304381;28;20053;-69
2023/05/26 07:46:18;;;;;;;16.63;6.97;;;;;;;16.60;59.38;101137.50;10313125;28;20644;-71
2023/05/26 07:51:20;;;;;;;11.30;6.40;;;;;;;16.94;58.37;101126.31;10291642;28;20237;-69
2023/05/26 07:56:21;;;;;;;11.27;5.55;;;;;;;17.26;58.01;101135.03;10305534;28;20057;-70
2023/05/26 08:01:23;;;;;;;12.45;4.95;;;;;;;17.59;56.51;101130.94;10308006;28;20108;-69
2023/05/26 08:06:24;;;;;;;12.13;5.32;;;;;;;17.90;55.54;101127.16;10291460;28;20175;-71
2023/05/26 08:11:28;;;;;;;12.52;5.05;;;;;;;18.08;54.49;101133.41;10307814;28;20057;-68
2023/05/26 08:16:29;;;;;;;14.30;5.10;;;;;;;18.04;54.99;101115.03;10306972;28;20107;-68
2023/05/26 08:21:31;;;;;;;11.55;5.13;;;;;;;18.36;54.01;101119.91;10302365;28;20157;-68
2023/05/26 08:26:32;;;;;;;10.77;5.15;;;;;;;18.61;53.27;101117.44;10290349;28;20069;-68
2023/05/26 08:31:34;;;;;;;9.82;4.68;;;;;;;18.83;52.98;101108.00;10303894;28;20133;-69
2023/05/26 08:36:35;;;;;;;14.93;5.32;;;;;;;19.10;51.90;101108.91;10314348;28;21390;-69
2023/05/26 08:41:48;;;;;;;11.13;5.05;;;;;;;19.26;51.73;101109.03;10299104;28;20092;-69
2023/05/26 08:46:55;;;;;;;10.68;5.38;;;;;;;19.38;50.33;101090.66;10320755;28;20064;-68
2023/05/26 08:52:04;;;;;;;11.52;5.18;;;;;;;19.39;50.42;101101.31;10311909;28;22237;-69
2023/05/26 08:57:06;;;;;;;15.07;5.15;;;;;;;19.59;50.31;101098.38;10313447;28;20053;-69
2023/05/26 09:02:08;;;;;;;9.65;4.65;;;;;;;19.83;50.14;101105.78;10312749;28;20210;-71
2023/05/26 09:07:10;;;;;;;10.85;4.25;;;;;;;19.86;50.26;101099.19;10315006;28;20060;-69
2023/05/26 09:12:15;;;;;;;11.52;5.22;;;;;;;20.23;49.40;101092.53;10314450;28;20136;-72
2023/05/26 09:17:16;;;;;;;11.52;5.00;;;;;;;20.44;48.13;101092.03;10314690;28;20609;-70
2023/05/26 09:22:22;;;;;;;9.10;4.68;;;;;;;20.68;47.99;101104.75;10308694;28;20350;-72
2023/05/26 09:27:24;;;;;;;6.60;4.40;;;;;;;20.77;47.95;101105.59;10312863;28;21305;-70
2023/05/26 09:32:29;;;;;;;11.35;4.18;;;;;;;21.04;47.75;101098.97;10308902;28;20058;-70
2023/05/26 09:37:32;;;;;;;10.23;4.93;;;;;;;21.35;46.44;101100.94;10309824;28;20056;-72
2023/05/26 09:42:36;;;;;;;7.95;4.07;;;;;;;21.09;47.01;101096.59;10309947;28;20053;-70
2023/05/26 09:47:38;;;;;;;8.63;4.32;;;;;;;21.48;47.04;101095.81;10312397;28;20053;-72
2023/05/26 09:52:40;;;;;;;9.10;4.82;;;;;;;21.63;45.80;101090.56;10297378;28;20058;-69
2023/05/26 09:57:44;;;;;;;9.23;4.18;;;;;;;21.92;45.32;101090.91;10311135;28;20129;-69
2023/05/26 10:02:47;;;;;;;11.07;4.30;;;;;;;22.05;44.68;101097.44;10325457;28;20050;-73
2023/05/26 10:07:51;;;;;;;10.03;3.90;;;;;;;22.26;44.73;101087.81;10312490;28;20138;-70
2023/05/26 10:12:52;;;;;;;9.23;4.07;;;;;;;22.48;43.93;101085.31;10312267;28;20512;-70
2023/05/26 10:17:56;;;;;;;10.13;4.15;;;;;;;22.57;43.84;101074.19;10298794;28;20554;-69
2023/05/26 10:23:01;;;;;;;12.00;4.28;;;;;;;22.78;43.47;101080.81;10291842;28;20057;-69
2023/05/26 10:28:19;;;;;;;6.25;3.70;;;;;;;22.75;43.36;101075.75;10294626;28;20053;-68
2023/05/26 10:33:37;;;;;;;11.05;4.25;;;;;;;22.90;42.89;101075.78;10296004;28;20132;-69
2023/05/26 10:38:44;;;;;;;10.80;4.82;;;;;;;23.08;42.40;101064.56;10307521;28;20180;-72
2023/05/26 10:43:45;;;;;;;9.68;4.32;;;;;;;23.03;42.56;101061.56;10319329;28;20469;-71
2023/05/26 10:48:58;;;;;;;7.82;4.00;;;;;;;23.29;42.12;101064.69;10306476;28;20144;-69
2023/05/26 10:54:15;;;;;;;7.53;4.07;;;;;;;23.62;41.79;101077.88;10300530;28;20677;-69
2023/05/26 10:59:22;;;;;;;9.95;4.18;;;;;;;23.69;39.81;101055.38;10310867;28;20172;-72
2023/05/26 11:04:40;;;;;;;8.32;3.90;;;;;;;23.43;40.91;101056.72;10313431;28;20163;-69
2023/05/26 11:09:56;;;;;;;8.93;4.05;;;;;;;23.70;40.94;101057.88;10306080;28;20135;-69
2023/05/26 11:15:33;;;;;;;10.05;3.83;;;;;;;23.86;40.27;101061.47;10308216;28;20805;-70
2023/05/26 11:20:34;;;;;;;;;;;;;;;24.06;39.96;101056.25;10298961;28;20129;-68
2023/05/26 11:25:43;;;;;;;8.07;3.63;;;;;;;24.09;40.71;101055.84;10288498;28;19936;-71
2023/05/26 11:30:45;;;;;;;9.00;3.53;;;;;;;23.81;40.81;101051.16;10307845;28;20433;-70
2023/05/26 11:35:46;;;;;;;7.38;3.50;;;;;;;23.85;40.43;101038.00;10295039;28;20052;-73
2023/05/26 11:40:48;;;;;;;8.88;3.60;;;;;;;24.25;39.55;101033.84;10307374;28;20053;-70
2023/05/26 11:45:53;;;;;;;11.13;5.13;;;;;;;24.18;39.31;101038.38;10305724;28;20064;-69
2023/05/26 11:50:55;;;;;;;9.88;3.97;;;;;;;24.39;39.02;101033.97;10307742;28;20120;-72
2023/05/26 11:56:10;;;;;;;8.40;3.75;;;;;;;24.59;38.33;101035.00;10292868;28;20420;-69
2023/05/26 12:01:12;;;;;;;8.10;4.28;;;;;;;24.64;37.87;101043.41;10311841;28;20054;-71
2023/05/26 12:06:18;;;;;;;9.32;4.13;;;;;;;24.44;38.15;101043.22;10303848;28;20196;-69
2023/05/26 12:11:28;;;;;;;10.55;4.60;;;;;;;24.50;37.95;101033.41;10306231;28;20042;-72
2023/05/26 12:16:37;;;;;;;7.38;3.53;;;;;;;24.54;38.48;101029.28;10304005;28;20057;-71
2023/05/26 12:21:47;;;;;;;6.28;3.25;;;;;;;24.63;38.09;101025.38;10303256;28;20046;-70
2023/05/26 12:26:49;;;;;;;11.13;4.20;;;;;;;24.64;37.37;101005.31;10307580;28;20556;-70
2023/05/26 12:31:52;;;;;;;10.75;4.47;;;;;;;24.33;37.62;101020.09;10307791;28;20204;-69
2023/05/26 12:36:54;;;;;;;8.77;3.80;;;;;;;24.48;37.35;101006.41;10300760;28;20471;-70
2023/05/26 12:41:55;;;;;;;10.40;4.32;;;;;;;24.41;38.10;101010.09;10302957;28;20062;-68
2023/05/26 12:46:56;;;;;;;9.02;4.00;;;;;;;24.40;37.54;101008.44;10306036;28;20065;-69
2023/05/26 12:51:58;;;;;;;9.07;4.05;;;;;;;24.38;38.43;100988.75;10306906;28;20585;-69
2023/05/26 12:57:04;;;;;;;8.38;3.42;;;;;;;24.43;37.14;100998.00;10306978;28;20209;-70
2023/05/26 13:02:06;;;;;;;8.25;3.45;;;;;;;24.40;36.88;100986.69;10308843;28;20050;-69
2023/05/26 13:07:08;;;;;;;6.85;3.28;;;;;;;24.18;37.96;100994.84;10293369;28;20590;-70
2023/05/26 13:12:09;;;;;;;7.88;3.90;;;;;;;24.25;38.23;100990.31;10306261;28;20126;-69
2023/05/26 13:17:11;;;;;;;10.82;3.90;;;;;;;24.26;37.45;100988.44;10303684;28;20514;-69
2023/05/26 13:22:12;;;;;;;10.10;3.83;;;;;;;24.19;37.84;100991.09;10312888;28;20781;-68
2023/05/26 13:27:14;;;;;;;11.32;4.68;;;;;;;24.19;38.08;100991.09;10311788;28;20061;-68
2023/05/26 13:32:16;;;;;;;6.90;4.85;;;;;;;23.65;38.83;100989.69;10302573;28;20050;-66
2023/05/26 13:37:17;;;;;;;9.32;3.90;;;;;;;23.60;39.09;100987.56;10300550;28;20050;-67
2023/05/26 13:42:19;;;;;;;10.63;4.18;;;;;;;23.67;38.64;100992.22;10307913;28;20078;-67
2023/05/26 13:47:21;;;;;;;10.02;3.50;;;;;;;23.75;39.15;100989.38;10313754;28;20050;-69
2023/05/26 13:52:23;;;;;;;7.20;3.78;;;;;;;23.75;39.30;100992.09;10310328;28;20057;-68
2023/05/26 13:57:25;;;;;;;9.45;3.90;;;;;;;23.66;38.83;100988.66;10311108;28;20552;-68
2023/05/26 14:02:26;;;;;;;7.93;3.00;;;;;;;23.61;38.72;100977.53;10309010;28;20050;-69
2023/05/26 14:07:28;;;;;;;10.00;3.88;;;;;;;23.57;39.37;100993.38;10314154;28;20056;-70
2023/05/26 14:12:30;;;;;;;13.30;4.45;;;;;;;23.52;38.92;100987.66;10305395;28;20053;-68
2023/05/26 14:17:32;;;;;;;10.73;3.83;;;;;;;23.21;39.49;100988.75;10299684;28;20054;-68
2023/05/26 14:22:33;;;;;;;11.00;5.05;;;;;;;23.21;39.68;100975.19;10301843;28;20050;-69
2023/05/26 14:27:35;;;;;;;9.32;4.55;;;;;;;23.09;40.11;100968.53;10308510;28;20046;-67
2023/05/26 14:32:40;;;;;;;12.82;4.40;;;;;;;23.05;39.60;100980.78;10313221;28;20173;-69
2023/05/26 14:37:41;;;;;;;10.57;4.35;;;;;;;22.99;40.06;100979.66;10301570;28;20235;-68
2023/05/26 14:42:43;;;;;;;8.98;3.75;;;;;;;22.89;40.55;100969.06;10298018;28;20065;-67
2023/05/26 14:47:44;;;;;;;10.30;4.93;;;;;;;22.85;40.72;100972.34;10310352;28;20512;-68
2023/05/26 14:52:46;;;;;;;9.82;3.97;;;;;;;22.90;40.61;100969.91;10309662;28;20112;-69
2023/05/26 14:57:47;;;;;;;10.05;3.85;;;;;;;22.89;40.97;100971.78;10312117;28;20469;-68
2023/05/26 15:02:49;;;;;;;9.15;3.90;;;;;;;22.83;40.24;100969.81;10301088;28;20086;-70
2023/05/26 15:07:51;;;;;;;8.05;3.47;;;;;;;22.80;40.51;100966.63;10300986;28;20046;-67
2023/05/26 15:12:52;;;;;;;11.90;4.38;;;;;;;22.81;40.55;100971.06;10315471;28;20050;-68
2023/05/26 15:17:54;;;;;;;9.95;4.47;;;;;;;22.80;40.43;100975.63;10324803;28;20054;-69
2023/05/26 15:22:56;;;;;;;8.73;3.55;;;;;;;22.71;40.46;100963.16;10309934;28;20117;-67
2023/05/26 15:27:58;;;;;;;9.23;3.70;;;;;;;22.68;40.62;100960.84;10298212;28;20053;-67
2023/05/26 15:32:59;;;;;;;9.30;4.43;;;;;;;22.66;40.44;100962.91;10306970;28;20133;-69
2023/05/26 15:38:01;;;;;;;11.40;4.05;;;;;;;22.58;40.85;100970.09;10293383;28;20091;-65
2023/05/26 15:43:05;;;;;;;10.88;3.90;;;;;;;22.51;40.55;100966.44;10303343;28;20057;-69
2023/05/26 15:48:07;;;;;;;11.60;4.18;;;;;;;22.38;40.48;100972.50;10294848;28;20081;-70
2023/05/26 15:53:08;;;;;;;10.63;4.00;;;;;;;22.37;40.67;100969.97;10305091;28;20060;-69
2023/05/26 15:58:10;;;;;;;10.23;3.65;;;;;;;22.41;40.99;100965.84;10305730;28;20088;-70
2023/05/26 16:03:11;;;;;;;12.20;4.60;;;;;;;22.38;40.87;100967.06;10304340;28;20057;-70
2023/05/26 16:08:13;;;;;;;7.90;4.05;;;;;;;22.36;40.71;100971.00;10300080;28;20046;-70
2023/05/26 16:13:14;;;;;;;12.85;4.97;;;;;;;22.22;41.29;100964.47;10307449;28;20146;-68
2023/05/26 16:18:16;;;;;;;10.35;3.97;;;;;;;22.17;40.97;100947.91;10296141;28;20073;-66
2023/05/26 16:23:17;;;;;;;11.57;4.45;;;;;;;22.13;40.49;100946.56;10294963;28;20713;-70
2023/05/26 16:28:20;;;;;;;10.68;4.85;;;;;;;22.15;40.96;100955.38;10303066;28;20050;-68
2023/05/26 16:33:21;;;;;;;12.00;4.30;;;;;;;22.13;40.82;100968.25;10303768;28;20046;-69
2023/05/26 16:38:23;;;;;;;8.73;3.83;;;;;;;21.98;40.67;100955.53;10293562;28;20065;-68
2023/05/26 16:43:25;;;;;;;10.07;3.65;;;;;;;21.92;41.01;100971.66;10306591;28;20042;-70
2023/05/26 16:48:30;;;;;;;9.27;3.80;;;;;;;21.95;40.97;100965.84;10304172;28;20112;-69
2023/05/26 16:53:31;;;;;;;9.95;4.07;;;;;;;21.83;40.59;100949.22;10291652;28;20045;-68
2023/05/26 16:58:33;;;;;;;9.43;3.88;;;;;;;21.94;40.60;100975.03;10312950;28;20057;-68
2023/05/26 17:03:34;;;;;;;13.05;3.70;;;;;;;21.86;40.67;100962.41;10301407;28;20046;-70
2023/05/26 17:08:36;;;;;;;7.60;4.40;;;;;;;21.78;40.63;100959.72;10315155;28;20058;-70
2023/05/26 17:13:37;;;;;;;9.23;3.70;;;;;;;21.71;40.77;100959.63;10301493;28;20509;-67
2023/05/26 17:18:39;;;;;;;8.93;3.78;;;;;;;21.66;41.21;100951.16;10311592;28;20459;-65
2023/05/26 17:23:41;;;;;;;7.65;3.60;;;;;;;21.56;41.15;100964.09;10298661;28;20062;-67
2023/05/26 17:28:43;;;;;;;11.40;4.13;;;;;;;21.53;40.97;100963.44;10312517;28;20485;-69
2023/05/26 17:33:45;;;;;;;8.75;3.88;;;;;;;21.46;40.85;100975.13;10315455;28;20046;-71
2023/05/26 17:38:46;;;;;;;8.77;3.77;;;;;;;21.39;41.19;100974.97;10309301;28;20049;-69
2023/05/26 17:43:48;;;;;;;9.35;3.70;;;;;;;21.32;41.18;100966.75;10313291;28;20053;-68
2023/05/26 17:48:50;;;;;;;12.52;4.85;;;;;;;21.24;41.34;100968.63;10311060;28;20128;-69
2023/05/26 17:53:51;;;;;;;11.65;4.60;;;;;;;21.01;41.62;100978.34;10301524;28;20532;-67
2023/05/26 17:58:53;;;;;;;10.63;3.90;;;;;;;20.93;41.92;100972.16;10303603;28;20442;-68
2023/05/26 18:03:54;;;;;;;9.10;3.97;;;;;;;20.86;41.90;100977.41;10308625;28;20798;-69
2023/05/26 18:08:56;;;;;;;11.35;4.78;;;;;;;20.78;42.18;100975.56;10313934;28;20207;-69
2023/05/26 18:13:57;;;;;;;8.68;3.90;;;;;;;20.80;42.21;100978.94;10302661;28;20111;-69
2023/05/26 18:18:59;;;;;;;9.50;4.20;;;;;;;20.75;42.38;100984.03;10317324;28;20118;-69
2023/05/26 18:24:00;;;;;;;8.48;4.25;;;;;;;20.48;42.40;100980.66;10303901;28;20108;-68
2023/05/26 18:29:02;;;;;;;7.20;3.58;;;;;;;20.50;42.40;100988.59;10313916;28;20347;-68
2023/05/26 18:34:08;;;;;;;9.88;4.30;;;;;;;20.39;42.59;100976.28;10322064;28;20053;-68
2023/05/26 18:39:28;;;;;;;9.63;5.05;;;;;;;20.34;42.74;100994.84;10310650;28;20065;-69
2023/05/26 18:44:30;;;;;;;8.68;3.70;;;;;;;20.25;43.00;100979.66;10322337;28;20046;-69
2023/05/26 18:49:32;;;;;;;9.80;3.50;;;;;;;20.28;42.82;100995.53;10321150;28;20054;-67
2023/05/26 18:54:33;;;;;;;9.90;3.85;;;;;;;20.05;43.22;101001.59;10318503;28;20054;-68
2023/05/26 18:59:35;;;;;;;9.65;3.60;;;;;;;19.94;43.39;101004.66;10317654;28;20045;-67
2023/05/26 19:04:36;;;;;;;8.00;4.00;;;;;;;19.87;43.27;100998.22;10306361;28;20104;-67
2023/05/26 19:09:38;;;;;;;9.98;4.15;;;;;;;19.85;43.48;101008.34;10311664;28;20057;-69
2023/05/26 19:14:39;;;;;;;7.65;3.92;;;;;;;19.73;43.45;101011.31;10312857;28;20713;-69
2023/05/26 19:19:41;;;;;;;10.45;3.63;;;;;;;19.56;43.23;101014.97;10316448;28;20057;-68
2023/05/26 19:24:42;;;;;;;11.68;3.95;;;;;;;19.47;43.50;101018.66;10313858;28;20079;-66
2023/05/26 19:29:44;;;;;;;12.68;3.63;;;;;;;19.35;43.21;101021.69;10303047;28;20053;-66
2023/05/26 19:34:46;;;;;;;7.88;2.85;;;;;;;19.18;43.59;101022.59;10302232;28;20061;-66
2023/05/26 19:39:47;;;;;;;11.10;3.88;;;;;;;19.18;43.00;101023.44;10311814;28;20050;-67
2023/05/26 19:44:48;;;;;;;9.15;2.88;;;;;;;19.16;42.82;101028.16;10313673;28;20042;-68
2023/05/26 19:49:51;;;;;;;10.35;3.30;;;;;;;19.13;42.45;101041.13;10318650;28;20054;-65
2023/05/26 19:54:52;;;;;;;6.22;2.53;;;;;;;18.92;42.99;101047.75;10310550;28;20065;-69
2023/05/26 19:59:54;;;;;;;10.02;3.10;;;;;;;18.80;42.17;101043.59;10314253;28;20050;-68
2023/05/26 20:04:55;;;;;;;7.68;2.90;;;;;;;18.66;41.97;101045.88;10310406;28;20577;-65
2023/05/26 20:09:57;;;;;;;6.65;3.17;;;;;;;18.67;42.17;101055.63;10312491;28;20462;-68
2023/05/26 20:14:58;;;;;;;6.50;2.15;;;;;;;18.50;42.09;101053.81;10311419;28;20140;-67
2023/05/26 20:20:00;;;;;;;9.40;3.88;;;;;;;18.55;41.42;101054.19;10300806;28;20722;-66
2023/05/26 20:25:14;;;;;;;5.47;3.00;;;;;;;18.30;41.32;101070.16;10292314;28;20057;-70
2023/05/26 20:30:16;;;;;;;7.70;2.80;;;;;;;18.06;41.43;101056.44;10310154;28;20049;-69
2023/05/26 20:35:17;;;;;;;6.10;2.25;;;;;;;17.98;41.01;101070.69;10299315;28;20343;-67
2023/05/26 20:40:22;;;;;;;7.82;2.50;;;;;;;17.94;40.28;101074.66;10302905;28;20056;-69
2023/05/26 20:45:23;;;;;;;8.73;2.45;;;;;;;17.91;40.56;101083.91;10313904;28;20421;-70
2023/05/26 20:50:25;;;;;;;5.90;2.63;;;;;;;17.90;40.53;101074.13;10310479;28;20046;-67
2023/05/26 20:55:26;;;;;;;6.30;2.25;;;;;;;17.94;40.26;101075.53;10309420;28;20575;-69
2023/05/26 21:00:27;;;;;;;6.28;2.42;;;;;;;17.65;40.33;101075.66;10311616;28;20187;-69
2023/05/26 21:05:29;;;;;;;9.30;2.90;;;;;;;17.71;40.13;101087.69;10313300;28;20157;-70
2023/05/26 21:10:31;;;;;;;5.82;1.92;;;;;;;17.69;40.61;101090.53;10312539;28;21518;-70
2023/05/26 21:15:32;;;;;;;6.38;2.38;;;;;;;17.71;40.68;101095.75;10310118;28;20042;-68
2023/05/26 21:20:34;;;;;;;5.32;2.45;;;;;;;17.62;41.02;101092.09;10320087;28;20132;-68
2023/05/26 21:25:37;;;;;;;6.50;2.30;;;;;;;17.60;41.46;101086.88;10323820;28;20062;-67
2023/05/26 21:30:38;;;;;;;8.13;2.63;;;;;;;17.40;41.70;101090.63;10321959;28;20068;-67
2023/05/26 21:35:39;;;;;;;7.35;2.53;;;;;;;17.35;42.04;101095.63;10315287;28;20081;-68
2023/05/26 21:40:41;;;;;;;5.75;2.60;;;;;;;17.19;42.22;101104.31;10317706;28;20087;-66
2023/05/26 21:45:44;;;;;;;7.35;3.25;;;;;;;17.20;42.30;101101.47;10320687;28;20096;-71
2023/05/26 21:50:45;;;;;;;9.47;3.10;;;;;;;17.05;42.59;101105.63;10319573;28;20073;-68
2023/05/26 21:55:47;;;;;;;6.90;2.47;;;;;;;16.79;42.95;101112.41;10321957;28;20046;-70
2023/05/26 22:00:48;;;;;;;7.53;2.70;;;;;;;16.82;43.13;101095.16;10320320;28;20092;-68
2023/05/26 22:05:50;;;;;;;7.38;2.42;;;;;;;16.64;43.46;101113.03;10325992;28;20054;-68
2023/05/26 22:10:51;;;;;;;6.80;2.60;;;;;;;16.76;43.38;101114.56;10321216;28;20054;-68
2023/05/26 22:15:53;;;;;;;10.35;2.80;;;;;;;16.56;43.65;101111.03;10302167;28;20127;-65
2023/05/26 22:20:54;;;;;;;7.07;2.40;;;;;;;16.60;44.26;101113.31;10313248;28;20484;-64
2023/05/26 22:25:56;;;;;;;8.88;3.78;;;;;;;16.65;44.11;101125.44;10320516;28;20054;-66
2023/05/26 22:31:02;;;;;;;6.68;2.75;;;;;;;16.58;43.95;101125.19;10307177;28;20057;-67
2023/05/26 22:36:04;;;;;;;6.22;3.05;;;;;;;16.50;44.38;101128.56;10295789;28;20144;-69
2023/05/26 22:41:05;;;;;;;11.20;3.50;;;;;;;16.43;44.44;101127.44;10314606;28;20160;-68
2023/05/26 22:46:07;;;;;;;9.23;3.78;;;;;;;16.34;44.91;101129.13;10313924;28;20709;-65
2023/05/26 22:51:08;;;;;;;7.90;2.72;;;;;;;16.39;44.46;101136.75;10292834;28;20576;-67
2023/05/26 22:56:09;;;;;;;5.45;2.22;;;;;;;16.28;44.96;101134.22;10314530;28;20056;-67
2023/05/26 23:01:15;;;;;;;7.45;3.00;;;;;;;16.12;45.33;101102.50;10311315;28;20061;-66
2023/05/26 23:06:16;;;;;;;6.05;2.97;;;;;;;16.10;45.55;101126.81;10299229;28;20512;-64